Time;durP1;ratioP1;P1;durP2;ratioP2;P2;SDS_P1;SDS_P2;PMS_P1;PMS_P2;Temp;Humidity;BMP_temperature;BMP_pressure;BME280_temperature;BME280_humidity;BME280_pressure;Samples;Min_cycle;Max_cycle;Signal;HPM_P1;HPM_P2
2021/03/06 00:00:18;;;;;;;62.00;20.40;;;;;;;-2.44;69.99;101990.85;1676443;84;21174;-70
2021/03/06 00:02:46;;;;;;;54.83;20.02;;;;;;;-2.45;69.98;101990.89;1699228;84;21144;-70
2021/03/06 00:05:12;;;;;;;40.67;17.62;;;;;;;-2.50;69.98;101992.81;1698722;84;21199;-70
2021/03/06 00:07:39;;;;;;;50.98;20.90;;;;;;;-2.53;70.00;101991.12;1698652;84;21203;-70
2021/03/06 00:10:10;;;;;;;37.55;15.20;;;;;;;-2.55;70.01;101994.25;1693076;84;21654;-70
2021/03/06 00:12:36;;;;;;;55.85;21.05;;;;;;;-2.55;70.01;101999.02;1691491;84;21628;-70
2021/03/06 00:15:03;;;;;;;44.90;16.20;;;;;;;-2.54;70.03;101995.52;1701505;83;21239;-70
2021/03/06 00:17:29;;;;;;;54.13;23.12;;;;;;;-2.54;70.03;101998.12;1678766;83;21199;-70
2021/03/06 00:19:56;;;;;;;44.73;18.32;;;;;;;-2.51;70.05;101994.56;1673054;85;21597;-70
2021/03/06 00:22:22;;;;;;;47.53;20.52;;;;;;;-2.53;70.07;101989.37;1677412;84;21211;-70
2021/03/06 00:24:48;;;;;;;59.35;30.08;;;;;;;-2.53;70.07;101999.81;1723300;83;21176;-71
2021/03/06 00:27:15;;;;;;;50.78;18.65;;;;;;;-2.58;70.09;101997.81;1692696;84;21211;-70
2021/03/06 00:29:41;;;;;;;39.88;17.48;;;;;;;-2.61;70.11;101999.22;1681196;84;21665;-71
2021/03/06 00:32:07;;;;;;;34.33;13.68;;;;;;;-2.57;70.14;101995.59;1692672;83;21203;-71
2021/03/06 00:34:33;;;;;;;46.48;18.95;;;;;;;-2.54;70.15;101997.27;1676531;84;22145;-71
2021/03/06 00:37:00;;;;;;;68.52;25.37;;;;;;;-2.54;70.16;101994.22;1686791;84;21613;-71
2021/03/06 00:39:26;;;;;;;95.25;36.85;;;;;;;-2.57;70.16;101990.36;1687926;84;21172;-71
2021/03/06 00:41:54;;;;;;;55.90;21.85;;;;;;;-2.61;70.18;101988.78;1686429;84;21154;-71
2021/03/06 00:44:20;;;;;;;42.78;16.27;;;;;;;-2.64;70.18;101988.84;1685376;85;21654;-71
2021/03/06 00:46:47;;;;;;;38.55;13.62;;;;;;;-2.65;70.18;101991.52;1685302;84;21214;-71
2021/03/06 00:49:17;;;;;;;34.70;12.43;;;;;;;-2.65;70.20;101987.16;1685348;85;21162;-70
2021/03/06 00:51:43;;;;;;;;;;;;;;;-2.64;70.23;101983.63;1688237;85;21177;-71
2021/03/06 00:54:09;;;;;;;31.07;11.63;;;;;;;-2.65;70.21;101981.94;1685446;85;20581;-71
2021/03/06 00:56:37;;;;;;;23.25;10.23;;;;;;;-2.68;70.24;101978.12;1685762;85;21187;-71
2021/03/06 00:59:04;;;;;;;22.50;9.63;;;;;;;-2.68;70.23;101976.81;1685484;84;21250;-70
2021/03/06 01:01:30;;;;;;;24.90;10.95;;;;;;;-2.66;70.23;101969.77;1685882;85;21182;-70
2021/03/06 01:03:56;;;;;;;25.32;9.88;;;;;;;-2.65;70.25;101972.80;1685486;84;21146;-70
2021/03/06 01:06:23;;;;;;;38.83;12.95;;;;;;;-2.65;70.25;101970.64;1685898;84;21202;-71
2021/03/06 01:08:49;;;;;;;30.85;11.48;;;;;;;-2.65;70.27;101959.74;1685436;85;21575;-71
2021/03/06 01:11:15;;;;;;;25.12;10.00;;;;;;;-2.67;70.28;101959.36;1685830;85;21202;-71
2021/03/06 01:13:42;;;;;;;30.12;11.03;;;;;;;-2.72;70.31;101955.61;1685708;84;21210;-71
2021/03/06 01:16:08;;;;;;;35.83;12.95;;;;;;;-2.74;70.34;101952.63;1685702;84;21592;-71
2021/03/06 01:18:34;;;;;;;26.35;9.73;;;;;;;-2.74;70.34;101950.88;1685838;85;21146;-70
2021/03/06 01:21:01;;;;;;;22.77;8.63;;;;;;;-2.74;70.35;101945.66;1685745;85;21150;-71
2021/03/06 01:23:27;;;;;;;36.63;11.73;;;;;;;-2.73;70.36;101952.59;1685812;84;22080;-71
2021/03/06 01:25:54;;;;;;;26.05;9.05;;;;;;;-2.71;70.36;101949.95;1685484;84;21190;-71
2021/03/06 01:28:20;;;;;;;26.95;10.48;;;;;;;-2.72;70.37;101953.00;1685724;84;21197;-71
2021/03/06 01:30:46;;;;;;;26.33;11.83;;;;;;;-2.73;70.39;101951.28;1686503;84;21698;-71
2021/03/06 01:33:13;;;;;;;29.98;12.25;;;;;;;-2.71;70.39;101957.78;1691118;84;21153;-71
2021/03/06 01:35:39;;;;;;;40.70;15.40;;;;;;;-2.71;70.39;101952.08;1690951;84;21539;-71
2021/03/06 01:38:05;;;;;;;35.88;14.93;;;;;;;-2.70;70.40;101956.86;1690577;84;21703;-71
2021/03/06 01:40:34;;;;;;;42.00;18.60;;;;;;;-2.70;70.41;101960.33;1691151;84;21202;-71
2021/03/06 01:43:06;;;;;;;44.85;19.67;;;;;;;-2.71;70.42;101963.83;1690671;84;21150;-71
2021/03/06 01:45:44;;;;;;;46.88;18.42;;;;;;;-2.68;70.44;101961.15;1811006;78;28186;-71
2021/03/06 01:48:11;;;;;;;46.58;20.50;;;;;;;-2.73;70.44;101960.42;1797044;79;21096;-71
2021/03/06 01:50:40;;;;;;;31.73;12.80;;;;;;;-2.75;70.44;101962.24;1796346;79;22105;-71
2021/03/06 01:53:09;;;;;;;44.40;18.00;;;;;;;-2.76;70.46;101956.61;1796982;79;21143;-71
2021/03/06 01:55:41;;;;;;;20.48;8.65;;;;;;;-2.77;70.48;101960.11;1797066;79;21187;-71
2021/03/06 01:58:07;;;;;;;34.23;11.10;;;;;;;-2.80;70.48;101957.59;1795390;79;21214;-71
2021/03/06 02:00:33;;;;;;;28.07;12.30;;;;;;;-2.82;70.52;101953.34;1763486;79;21126;-71
2021/03/06 02:03:00;;;;;;;36.23;12.40;;;;;;;-2.82;70.55;101955.50;1796751;79;22170;-71
2021/03/06 02:05:27;;;;;;;30.72;14.03;;;;;;;-2.82;70.56;101956.80;1796880;79;21171;-71
2021/03/06 02:07:53;;;;;;;28.65;11.43;;;;;;;-2.81;70.57;101957.19;1796860;79;21151;-71
2021/03/06 02:10:26;;;;;;;29.65;12.23;;;;;;;-2.81;70.58;101951.97;1796706;79;21143;-71
2021/03/06 02:13:10;;;;;;;35.63;13.35;;;;;;;-2.82;70.63;101954.20;1764015;79;21159;-71
2021/03/06 02:16:07;;;;;;;30.75;9.95;;;;;;;-2.85;70.63;101952.95;1795146;79;21242;-71
2021/03/06 02:18:45;;;;;;;24.02;9.68;;;;;;;-2.82;70.66;101955.50;1794748;79;21153;-71
2021/03/06 02:21:50;;;;;;;30.08;11.30;;;;;;;-2.84;70.68;101944.23;1794704;80;21155;-71
2021/03/06 02:24:43;;;;;;;45.73;18.27;;;;;;;-2.89;70.69;101940.92;1794263;80;21214;-71
2021/03/06 02:27:33;;;;;;;46.75;18.17;;;;;;;-2.93;70.72;101947.14;1794964;80;21140;-71
2021/03/06 02:30:04;;;;;;;;;;;;;;;-2.93;70.75;101951.05;1797564;80;22148;-71
2021/03/06 02:32:36;;;;;;;54.75;23.83;;;;;;;-2.96;70.77;101951.15;1794849;80;20419;-71
2021/03/06 02:35:13;;;;;;;61.85;30.10;;;;;;;-2.98;70.77;101956.84;1794888;80;21136;-71
2021/03/06 02:37:42;;;;;;;68.07;32.93;;;;;;;-2.99;70.78;101949.08;1794433;79;21167;-71
2021/03/06 02:40:11;;;;;;;54.40;28.42;;;;;;;-3.03;70.81;101954.36;1794207;80;21139;-71
2021/03/06 02:42:37;;;;;;;55.15;26.05;;;;;;;-3.07;70.82;101957.98;1794965;80;21295;-71
2021/03/06 02:45:05;;;;;;;43.50;21.00;;;;;;;-3.08;70.83;101956.72;1789462;80;21594;-71
2021/03/06 02:47:31;;;;;;;36.17;16.17;;;;;;;-3.12;70.86;101959.01;1786333;80;21561;-71
2021/03/06 02:49:59;;;;;;;34.35;13.55;;;;;;;-3.13;70.87;101951.63;1785802;80;21112;-71
2021/03/06 02:52:25;;;;;;;33.02;12.18;;;;;;;-3.10;70.89;101950.70;1786283;80;21155;-72
2021/03/06 02:54:52;;;;;;;30.45;11.95;;;;;;;-3.09;70.93;101946.72;1786319;80;21203;-72
2021/03/06 02:57:52;;;;;;;32.80;11.75;;;;;;;-3.07;70.96;101951.91;1785940;80;21180;-71
2021/03/06 03:00:39;;;;;;;31.85;12.37;;;;;;;-3.06;70.98;101953.59;1785819;80;21112;-71
2021/03/06 03:03:46;;;;;;;30.82;12.23;;;;;;;-3.07;71.03;101950.61;1785734;80;21136;-71
2021/03/06 03:06:34;;;;;;;27.67;10.55;;;;;;;-3.08;71.01;101958.02;1785905;80;21171;-71
2021/03/06 03:09:31;;;;;;;23.73;11.08;;;;;;;-3.08;71.06;101958.02;1785779;80;22003;-71
2021/03/06 03:12:13;;;;;;;29.30;13.48;;;;;;;-3.13;71.07;101954.23;1785724;80;21167;-71
2021/03/06 03:15:12;;;;;;;36.50;16.48;;;;;;;-3.15;71.09;101963.02;1785879;79;21232;-71
2021/03/06 03:17:45;;;;;;;48.10;21.50;;;;;;;-3.16;71.10;101967.81;1785879;80;21136;-72
2021/03/06 03:20:42;;;;;;;36.63;16.90;;;;;;;-3.19;71.11;101965.30;1784515;80;21612;-71
2021/03/06 03:23:16;;;;;;;30.68;13.32;;;;;;;-3.19;71.16;101967.91;1785643;80;21565;-71
2021/03/06 03:25:43;;;;;;;27.05;12.15;;;;;;;-3.22;71.17;101971.92;1785644;80;21167;-71
2021/03/06 03:28:09;;;;;;;24.70;10.38;;;;;;;-3.21;71.19;101969.72;1785795;80;21195;-71
2021/03/06 03:30:37;;;;;;;25.70;11.40;;;;;;;-3.20;71.20;101974.88;1785626;80;21147;-71
2021/03/06 03:33:06;;;;;;;29.82;11.33;;;;;;;-3.19;71.23;101974.44;1785804;80;21167;-71
2021/03/06 03:35:33;;;;;;;41.75;14.38;;;;;;;-3.22;71.24;101977.13;1751747;80;21143;-71
2021/03/06 03:38:00;;;;;;;42.55;17.17;;;;;;;-3.25;71.27;101978.09;1785560;80;21168;-71
2021/03/06 03:40:26;;;;;;;32.30;13.85;;;;;;;-3.25;71.29;101975.92;1785891;80;21586;-72
2021/03/06 03:42:52;;;;;;;25.85;11.90;;;;;;;-3.26;71.31;101978.97;1785448;80;21155;-73
2021/03/06 03:45:20;;;;;;;25.02;9.70;;;;;;;-3.28;71.33;101983.39;1785678;80;21541;-71
2021/03/06 03:47:47;;;;;;;25.25;10.60;;;;;;;-3.29;71.31;101987.33;1785687;80;21183;-71
2021/03/06 03:50:15;;;;;;;24.63;11.63;;;;;;;-3.29;71.33;101987.33;1785762;80;21163;-71
2021/03/06 03:52:48;;;;;;;25.30;11.30;;;;;;;-3.29;71.36;101996.46;1753087;80;21124;-72
2021/03/06 03:55:15;;;;;;;21.90;9.55;;;;;;;-3.33;71.39;101990.92;1785651;80;21163;-71
2021/03/06 03:57:45;;;;;;;21.73;9.50;;;;;;;-3.32;71.42;101990.03;1753291;80;21533;-71
2021/03/06 04:00:13;;;;;;;28.05;12.50;;;;;;;-3.32;71.42;101987.42;1785780;80;21198;-72
2021/03/06 04:02:40;;;;;;;28.17;12.93;;;;;;;-3.33;71.45;101985.27;1785644;80;21620;-71
2021/03/06 04:05:08;;;;;;;25.12;9.55;;;;;;;-3.35;71.49;101982.30;1785429;80;21183;-71
2021/03/06 04:07:44;;;;;;;23.83;9.83;;;;;;;-3.37;71.48;101982.77;1785556;80;21554;-71
2021/03/06 04:10:13;;;;;;;19.20;8.53;;;;;;;-3.36;71.50;101980.58;1785177;80;21120;-71
2021/03/06 04:12:40;;;;;;;21.15;8.70;;;;;;;-3.36;71.54;101988.41;1785759;80;22252;-71
2021/03/06 04:15:08;;;;;;;17.02;7.75;;;;;;;-3.39;71.57;101980.67;1785803;79;21132;-71
2021/03/06 04:17:34;;;;;;;21.40;9.10;;;;;;;-3.41;71.59;101982.48;1785565;80;21131;-71
2021/03/06 04:20:03;;;;;;;18.55;8.40;;;;;;;-3.43;71.59;101987.72;1752609;80;21458;-71
2021/03/06 04:22:29;;;;;;;24.90;11.18;;;;;;;-3.41;71.61;101987.69;1785699;80;21139;-71
2021/03/06 04:24:55;;;;;;;24.50;10.88;;;;;;;-3.40;71.62;101987.63;1785713;80;21207;-71
2021/03/06 04:27:22;;;;;;;31.62;11.25;;;;;;;-3.36;71.62;101985.80;1785649;80;21152;-71
2021/03/06 04:29:48;;;;;;;39.78;13.30;;;;;;;-3.35;71.65;101982.30;1785616;80;21156;-71
2021/03/06 04:32:14;;;;;;;28.70;9.93;;;;;;;-3.35;71.66;101985.77;1785806;80;21672;-71
2021/03/06 04:34:41;;;;;;;25.10;11.10;;;;;;;-3.37;71.67;101984.08;1785493;80;21148;-72
2021/03/06 04:37:07;;;;;;;26.80;10.05;;;;;;;-3.39;71.70;101983.28;1785762;80;22090;-71
2021/03/06 04:39:33;;;;;;;25.12;10.18;;;;;;;-3.48;71.72;101982.24;1785509;80;21128;-71
2021/03/06 04:42:00;;;;;;;23.90;9.55;;;;;;;-3.56;71.74;101987.66;1785667;80;21115;-71
2021/03/06 04:44:26;;;;;;;31.60;10.38;;;;;;;-3.58;71.76;101986.38;1785646;80;21148;-71
2021/03/06 04:46:52;;;;;;;22.87;10.20;;;;;;;-3.62;71.76;101978.23;1785736;80;21172;-71
2021/03/06 04:49:19;;;;;;;21.45;9.95;;;;;;;-3.63;71.77;101979.16;1785578;80;21200;-71
2021/03/06 04:51:45;;;;;;;26.40;10.18;;;;;;;-3.70;71.80;101975.00;1785506;80;21239;-71
2021/03/06 04:54:11;;;;;;;18.07;8.13;;;;;;;-3.77;71.79;101982.58;1785820;80;21676;-71
2021/03/06 04:56:37;;;;;;;22.30;8.18;;;;;;;-3.80;71.81;101980.02;1785490;80;21143;-71
2021/03/06 04:59:04;;;;;;;20.82;8.78;;;;;;;-3.81;71.80;101982.24;1785567;80;21627;-71
2021/03/06 05:01:30;;;;;;;24.47;9.90;;;;;;;-3.84;71.82;101996.66;1785305;80;21148;-71
2021/03/06 05:03:56;;;;;;;22.85;10.48;;;;;;;-3.86;71.87;101993.22;1785690;80;21601;-71
2021/03/06 05:06:23;;;;;;;23.75;10.53;;;;;;;-3.88;71.89;101997.62;1785592;80;21199;-71
2021/03/06 05:08:49;;;;;;;23.65;9.93;;;;;;;-3.86;71.92;101999.73;1785675;80;21142;-71
2021/03/06 05:11:15;;;;;;;21.07;8.65;;;;;;;-3.87;71.92;102000.62;1785769;80;21168;-71
2021/03/06 05:13:41;;;;;;;23.55;9.35;;;;;;;-3.85;71.93;102001.89;1785425;80;22075;-71
2021/03/06 05:16:08;;;;;;;23.83;10.30;;;;;;;-3.82;71.94;102001.38;1785551;79;21195;-71
2021/03/06 05:18:34;;;;;;;32.33;15.50;;;;;;;-3.82;71.99;101994.86;1785603;80;21140;-71
2021/03/06 05:21:01;;;;;;;37.53;18.32;;;;;;;-3.84;72.00;101990.14;1785536;80;21112;-71
2021/03/06 05:23:27;;;;;;;41.53;23.10;;;;;;;-3.85;72.02;101992.33;1785642;80;21132;-71
2021/03/06 05:25:53;;;;;;;52.80;30.62;;;;;;;-3.85;72.02;101994.94;1785648;80;21332;-71
2021/03/06 05:28:23;;;;;;;65.35;33.58;;;;;;;-3.83;72.04;101991.83;1785592;80;21108;-71
2021/03/06 05:30:49;;;;;;;45.88;20.35;;;;;;;-3.80;72.01;101996.96;1785637;80;21191;-71
2021/03/06 05:33:16;;;;;;;39.30;19.50;;;;;;;-3.77;72.02;102003.42;1785567;80;21208;-71
2021/03/06 05:35:42;;;;;;;35.73;15.93;;;;;;;-3.76;72.03;102000.34;1785551;80;21144;-71
2021/03/06 05:38:09;;;;;;;26.82;11.05;;;;;;;-3.73;72.03;102005.03;1785482;80;22139;-71
2021/03/06 05:40:47;;;;;;;21.77;9.28;;;;;;;-3.68;72.05;102007.52;1785552;80;21600;-71
2021/03/06 05:43:14;;;;;;;16.35;7.87;;;;;;;-3.63;72.06;102004.36;1785630;80;21175;-71
2021/03/06 05:45:42;;;;;;;26.48;11.18;;;;;;;-3.60;72.06;102006.44;1788108;80;21120;-71
2021/03/06 05:48:08;;;;;;;28.60;11.30;;;;;;;-3.57;72.07;102003.75;1760583;80;21274;-71
2021/03/06 05:50:34;;;;;;;24.50;9.10;;;;;;;-3.54;72.07;102005.41;1791332;80;22139;-71
2021/03/06 05:53:01;;;;;;;24.47;10.98;;;;;;;-3.52;72.07;102010.98;1791327;80;21143;-71
2021/03/06 05:55:27;;;;;;;34.33;17.20;;;;;;;-3.47;72.08;102011.30;1791388;80;21144;-71
2021/03/06 05:57:56;;;;;;;36.68;22.55;;;;;;;-3.42;72.08;102018.12;1791382;80;21627;-71
2021/03/06 06:00:23;;;;;;;27.02;17.20;;;;;;;-3.39;72.09;102016.73;1791632;80;21120;-71
2021/03/06 06:02:55;;;;;;;20.08;10.45;;;;;;;-3.35;72.11;102022.28;1791558;80;21219;-71
2021/03/06 06:05:22;;;;;;;18.50;8.80;;;;;;;-3.32;72.09;102022.19;1761636;80;21168;-71
2021/03/06 06:07:48;;;;;;;28.25;9.80;;;;;;;-3.29;72.10;102025.16;1791431;80;21155;-71
2021/03/06 06:10:15;;;;;;;24.25;11.05;;;;;;;-3.24;72.10;102033.72;1791346;80;21630;-71
2021/03/06 06:12:42;;;;;;;25.20;12.05;;;;;;;-3.20;72.09;102037.95;1791459;80;21135;-71
2021/03/06 06:15:11;;;;;;;31.48;14.10;;;;;;;-3.17;72.09;102035.27;1791437;79;21442;-71
2021/03/06 06:17:38;;;;;;;28.67;15.28;;;;;;;-3.12;72.11;102032.05;1790523;80;21170;-71
2021/03/06 06:20:06;;;;;;;40.17;17.75;;;;;;;-3.08;72.10;102034.98;1791495;80;21179;-72
2021/03/06 06:22:32;;;;;;;24.37;10.55;;;;;;;-2.99;72.08;102036.02;1790806;80;21183;-71
2021/03/06 06:24:58;;;;;;;37.28;15.80;;;;;;;-2.87;72.06;102039.59;1791588;80;21104;-72
2021/03/06 06:27:31;;;;;;;30.90;14.38;;;;;;;-2.67;72.00;102039.85;1791436;80;22496;-72
2021/03/06 06:29:59;;;;;;;38.38;18.50;;;;;;;-2.35;71.91;102044.55;1791190;80;21199;-72
2021/03/06 06:32:28;;;;;;;39.13;17.57;;;;;;;-2.05;71.88;102054.05;1791424;80;21166;-72
2021/03/06 06:35:06;;;;;;;27.40;16.32;;;;;;;-1.83;71.83;102056.34;1791464;80;21139;-72
2021/03/06 06:37:32;;;;;;;25.50;11.93;;;;;;;-1.59;71.84;102057.31;1791747;80;21227;-72
2021/03/06 06:39:59;;;;;;;24.75;10.60;;;;;;;-1.43;71.82;102056.31;1791165;80;21151;-72
2021/03/06 06:42:33;;;;;;;23.70;10.88;;;;;;;-1.21;71.80;102059.89;1791509;80;21692;-72
2021/03/06 06:44:59;;;;;;;30.60;12.15;;;;;;;-1.02;71.78;102066.16;1791374;80;21147;-72
2021/03/06 06:47:40;;;;;;;31.25;12.00;;;;;;;-0.89;71.76;102062.22;1785620;80;21621;-72
2021/03/06 06:50:30;;;;;;;48.75;16.07;;;;;;;-0.67;71.72;102059.17;1852009;77;22044;-72
2021/03/06 06:52:56;;;;;;;46.13;19.17;;;;;;;-0.60;71.67;102063.27;1787944;80;21124;-72
2021/03/06 06:55:40;;;;;;;75.00;26.33;;;;;;;-0.59;71.57;102070.23;1787659;80;22181;-71
2021/03/06 06:58:07;;;;;;;36.88;15.80;;;;;;;-0.50;71.52;102070.34;1756685;81;21580;-72
2021/03/06 07:00:35;;;;;;;21.52;12.13;;;;;;;-0.38;71.43;102071.63;1787670;80;21116;-72
2021/03/06 07:03:03;;;;;;;27.35;14.65;;;;;;;-0.38;71.33;102075.09;1755012;81;21111;-72
2021/03/06 07:05:39;;;;;;;62.88;30.17;;;;;;;-0.34;71.21;102076.70;1787810;80;21013;-72
2021/03/06 07:08:08;;;;;;;28.60;14.73;;;;;;;-0.19;71.08;102077.42;1754588;81;21994;-72
2021/03/06 07:10:38;;;;;;;52.80;22.93;;;;;;;-0.12;70.96;102074.09;1787756;80;21584;-72
2021/03/06 07:13:09;;;;;;;37.00;17.12;;;;;;;-0.01;70.82;102073.21;1751669;81;21684;-73
2021/03/06 07:15:41;;;;;;;21.20;10.05;;;;;;;0.09;70.72;102069.75;1764459;80;21131;-72
2021/03/06 07:18:17;;;;;;;22.45;9.33;;;;;;;0.11;70.58;102075.77;1775946;80;21183;-72
2021/03/06 07:20:44;;;;;;;16.65;7.70;;;;;;;0.16;70.43;102069.45;1744132;80;22231;-72
2021/03/06 07:23:24;;;;;;;22.17;10.18;;;;;;;0.29;70.32;102076.34;1741639;82;21172;-72
2021/03/06 07:25:55;;;;;;;25.75;10.53;;;;;;;0.41;70.22;102075.39;1741189;82;21541;-72
2021/03/06 07:28:23;;;;;;;24.12;9.70;;;;;;;0.50;70.06;102069.74;1741305;82;21609;-72
2021/03/06 07:30:49;;;;;;;35.38;11.83;;;;;;;0.58;69.92;102071.19;1741411;82;21156;-72
2021/03/06 07:33:17;;;;;;;30.88;13.68;;;;;;;0.65;69.80;102070.87;1741640;82;21202;-72
2021/03/06 07:35:45;;;;;;;30.20;14.43;;;;;;;0.75;69.67;102064.30;1714662;82;21129;-72
2021/03/06 07:38:17;;;;;;;32.00;16.80;;;;;;;0.86;69.50;102067.77;1739986;81;21133;-72
2021/03/06 07:40:55;;;;;;;33.05;19.02;;;;;;;0.94;69.37;102072.23;1746735;81;21599;-72
2021/03/06 07:43:31;;;;;;;34.58;16.12;;;;;;;1.03;69.21;102067.87;1754986;80;21528;-72
2021/03/06 07:45:59;;;;;;;16.52;9.28;;;;;;;1.21;69.08;102070.14;1734821;80;22215;-72
2021/03/06 07:48:28;;;;;;;18.75;8.63;;;;;;;1.25;68.89;102071.25;1716023;81;21633;-72
2021/03/06 07:50:55;;;;;;;17.35;9.45;;;;;;;1.29;68.74;102068.88;1744297;81;21625;-72
2021/03/06 07:53:21;;;;;;;19.35;8.48;;;;;;;1.39;68.60;102067.53;1717286;82;21243;-71
2021/03/06 07:55:48;;;;;;;13.60;7.22;;;;;;;1.42;68.45;102061.28;1712629;82;21186;-71
2021/03/06 07:58:20;;;;;;;20.97;10.15;;;;;;;1.53;68.34;102066.03;1718664;82;21227;-71
2021/03/06 08:00:56;;;;;;;30.37;12.88;;;;;;;1.60;68.22;102062.20;1743058;81;21164;-71
2021/03/06 08:03:31;;;;;;;16.87;7.37;;;;;;;1.64;68.04;102066.39;1742638;81;21124;-71
2021/03/06 08:06:19;;;;;;;18.32;9.45;;;;;;;1.64;67.85;102069.02;1745542;81;21102;-71
2021/03/06 08:08:52;;;;;;;15.30;9.10;;;;;;;1.60;67.68;102064.83;1750555;81;21176;-71
2021/03/06 08:11:24;;;;;;;21.62;10.15;;;;;;;1.62;67.48;102073.02;1751131;81;21218;-71
2021/03/06 08:13:55;;;;;;;20.77;11.73;;;;;;;1.66;67.32;102069.79;1688484;82;21309;-71
2021/03/06 08:16:31;;;;;;;15.90;8.05;;;;;;;1.71;67.14;102065.18;1736907;81;21209;-72
2021/03/06 08:19:16;;;;;;;18.27;6.90;;;;;;;1.74;66.91;102067.66;1742599;81;21155;-71
2021/03/06 08:21:44;;;;;;;16.45;8.78;;;;;;;1.71;66.65;102067.81;1744145;81;21131;-71
2021/03/06 08:24:19;;;;;;;15.05;8.25;;;;;;;1.73;66.50;102067.27;1747522;81;21213;-71
2021/03/06 08:26:52;;;;;;;20.88;12.68;;;;;;;1.74;66.32;102062.40;1739405;81;21156;-71
2021/03/06 08:29:28;;;;;;;22.73;12.43;;;;;;;1.78;66.09;102066.59;1699394;83;21212;-72
2021/03/06 08:32:03;;;;;;;20.10;9.95;;;;;;;1.87;65.95;102068.77;1746211;81;21220;-71
2021/03/06 08:34:36;;;;;;;15.55;7.58;;;;;;;1.98;65.81;102065.17;1709094;83;21167;-71
2021/03/06 08:37:20;;;;;;;16.50;7.17;;;;;;;2.03;65.61;102059.70;1735458;80;21217;-71
2021/03/06 08:40:01;;;;;;;14.33;7.45;;;;;;;2.05;65.45;102066.58;1746029;81;21182;-71
2021/03/06 08:42:51;;;;;;;21.82;10.65;;;;;;;2.06;65.24;102074.02;1726066;81;21612;-71
2021/03/06 08:45:23;;;;;;;;;;;;;;;2.12;65.09;102073.25;1727531;82;21220;-72
2021/03/06 08:47:57;;;;;;;20.08;10.08;;;;;;;2.17;64.89;102072.57;1726169;81;20278;-71
2021/03/06 08:50:24;;;;;;;17.77;9.60;;;;;;;2.19;64.76;102077.73;1744850;81;21221;-72
2021/03/06 08:53:08;;;;;;;13.65;6.67;;;;;;;2.25;64.64;102073.02;1714406;83;21619;-71
2021/03/06 08:58:19;;;;;;;13.53;5.70;;;;;;;2.48;64.33;102072.75;1797784;78;22860;-72
2021/03/06 09:00:54;;;;;;;13.62;5.62;;;;;;;2.51;64.24;102074.37;1783811;79;21626;-72
2021/03/06 09:03:25;;;;;;;14.98;6.03;;;;;;;2.57;64.12;102075.86;1772991;79;21636;-72
2021/03/06 09:05:56;;;;;;;17.00;5.17;;;;;;;2.65;64.03;102068.39;1720287;82;21638;-72
2021/03/06 09:08:25;;;;;;;11.57;5.80;;;;;;;2.71;63.94;102068.11;1729832;82;21142;-72
2021/03/06 09:10:56;;;;;;;16.20;6.72;;;;;;;2.76;63.84;102070.02;1750048;81;21597;-72
2021/03/06 09:13:23;;;;;;;13.22;6.05;;;;;;;2.86;63.77;102075.19;1746647;81;21580;-72
2021/03/06 09:16:03;;;;;;;13.25;6.47;;;;;;;2.97;63.70;102067.59;1760901;80;22152;-72
2021/03/06 09:18:31;;;;;;;;;;;;;;;2.96;63.57;102063.23;1769217;80;21188;-71
2021/03/06 09:21:08;;;;;;;12.45;8.50;;;;;;;2.99;63.44;102063.11;1764165;80;20261;-71
2021/03/06 09:23:42;;;;;;;12.58;6.37;;;;;;;3.09;63.40;102070.91;1760585;80;21512;-71
2021/03/06 09:26:13;;;;;;;13.53;5.90;;;;;;;3.15;63.24;102066.63;1763452;80;21613;-72
2021/03/06 09:28:40;;;;;;;8.58;4.33;;;;;;;3.25;63.12;102065.20;1768584;80;22131;-72
2021/03/06 09:34:03;;;;;;;11.00;4.55;;;;;;;3.40;62.92;102056.47;1791561;79;22696;-73
2021/03/06 09:36:31;;;;;;;10.05;4.83;;;;;;;3.38;62.77;102060.95;1776224;78;21251;-73
2021/03/06 09:38:59;;;;;;;12.53;4.87;;;;;;;3.44;62.68;102055.37;1771048;79;21255;-72
2021/03/06 09:41:30;;;;;;;10.45;4.70;;;;;;;3.56;62.62;102058.24;1785737;79;21185;-72
2021/03/06 09:43:59;;;;;;;21.00;7.85;;;;;;;3.64;62.51;102054.72;1778235;79;21153;-72
2021/03/06 09:46:28;;;;;;;9.05;4.45;;;;;;;3.73;62.43;102047.14;1777693;79;21603;-71
2021/03/06 09:49:01;;;;;;;74.37;35.55;;;;;;;3.82;62.36;102034.77;1776787;79;21191;-72
2021/03/06 09:51:53;;;;;;;42.17;17.85;;;;;;;3.92;62.26;102040.37;1782082;79;21268;-73
2021/03/06 09:54:22;;;;;;;19.02;8.95;;;;;;;4.02;62.19;102032.30;1782636;79;21009;-73
2021/03/06 09:56:51;;;;;;;12.03;5.72;;;;;;;4.05;62.00;102025.52;1771115;79;21219;-72
2021/03/06 09:59:18;;;;;;;11.48;5.00;;;;;;;4.06;61.83;102032.98;1773346;79;21236;-72
2021/03/06 10:01:45;;;;;;;21.97;8.90;;;;;;;4.05;61.64;102033.44;1775276;79;21130;-72
2021/03/06 10:04:16;;;;;;;13.78;5.50;;;;;;;4.10;61.56;102035.36;1777360;79;21602;-72
2021/03/06 10:06:55;;;;;;;13.80;4.87;;;;;;;4.26;61.45;102021.64;1824118;77;23311;-73
2021/03/06 10:09:23;;;;;;;35.73;14.58;;;;;;;4.23;61.26;102029.75;1797144;78;21164;-73
2021/03/06 10:11:53;;;;;;;47.73;19.40;;;;;;;4.25;61.15;102030.52;1795757;78;21487;-73
2021/03/06 10:14:27;;;;;;;22.02;7.85;;;;;;;4.27;61.01;102018.07;1797547;78;21221;-72
2021/03/06 10:16:58;;;;;;;11.57;4.20;;;;;;;4.27;60.85;102023.34;1794662;78;21152;-72
2021/03/06 10:19:33;;;;;;;39.60;14.98;;;;;;;4.34;60.74;102016.77;1801136;78;21526;-72
2021/03/06 10:22:13;;;;;;;18.30;5.95;;;;;;;4.46;60.63;102016.06;1790136;77;23271;-72
2021/03/06 10:24:58;;;;;;;19.80;6.03;;;;;;;4.43;60.34;102005.64;1773069;79;21232;-73
2021/03/06 10:27:48;;;;;;;14.87;8.75;;;;;;;4.49;60.17;102010.59;1779039;79;21172;-73
2021/03/06 10:30:26;;;;;;;13.38;5.40;;;;;;;4.59;59.97;102003.42;1776819;79;21202;-73
2021/03/06 10:33:04;;;;;;;8.93;4.22;;;;;;;4.79;59.79;102009.66;1781713;79;21189;-72
2021/03/06 10:35:42;;;;;;;7.60;3.45;;;;;;;4.82;59.60;102017.43;1774974;79;21145;-72
2021/03/06 10:38:10;;;;;;;7.00;2.60;;;;;;;4.77;59.44;102015.06;1771935;79;21182;-72
2021/03/06 10:40:52;;;;;;;12.45;3.00;;;;;;;4.62;59.22;102011.16;1773547;79;22116;-72
2021/03/06 10:43:40;;;;;;;15.08;4.30;;;;;;;4.57;59.06;102015.42;1782261;79;21162;-72
2021/03/06 10:46:24;;;;;;;12.00;5.45;;;;;;;4.60;58.63;102006.45;1782407;79;21146;-72
2021/03/06 10:48:56;;;;;;;16.67;4.97;;;;;;;4.57;58.27;102009.28;1780866;79;21167;-72
2021/03/06 10:51:25;;;;;;;15.50;7.33;;;;;;;4.64;58.03;102014.11;1731001;81;21219;-72
2021/03/06 10:54:01;;;;;;;13.22;5.20;;;;;;;4.40;57.73;102017.72;1724487;82;21215;-72
2021/03/06 10:56:27;;;;;;;13.38;5.10;;;;;;;4.36;57.64;102006.95;1773675;80;21237;-72
2021/03/06 10:58:54;;;;;;;9.58;3.72;;;;;;;4.44;57.47;102002.08;1757632;80;21640;-72
2021/03/06 11:01:20;;;;;;;8.45;4.45;;;;;;;4.45;57.11;102000.28;1767626;80;21144;-72
2021/03/06 11:03:48;;;;;;;11.80;2.67;;;;;;;4.45;56.84;101995.86;1760797;80;21200;-72
2021/03/06 11:06:15;;;;;;;8.15;2.87;;;;;;;4.49;56.60;102000.02;1756646;80;21204;-72
2021/03/06 11:08:42;;;;;;;6.55;2.12;;;;;;;4.63;56.52;101990.41;1764086;80;21193;-72
2021/03/06 11:11:08;;;;;;;6.97;3.20;;;;;;;4.69;56.32;101984.74;1770487;79;21164;-73
2021/03/06 11:13:44;;;;;;;11.73;5.03;;;;;;;4.77;56.18;101989.09;1759958;79;21213;-72
2021/03/06 11:16:11;;;;;;;13.43;3.22;;;;;;;4.79;56.07;101985.87;1727963;81;21660;-72
2021/03/06 11:18:42;;;;;;;5.75;2.58;;;;;;;4.74;55.81;101982.69;1737301;81;21622;-72
2021/03/06 11:21:11;;;;;;;6.12;2.80;;;;;;;4.73;55.74;101978.33;1734624;81;21191;-72
2021/03/06 11:23:38;;;;;;;4.90;2.07;;;;;;;4.70;55.65;101976.73;1730578;82;21167;-72
2021/03/06 11:26:04;;;;;;;5.85;2.67;;;;;;;4.76;55.64;101974.17;1733118;82;21770;-72
2021/03/06 11:28:31;;;;;;;4.47;2.10;;;;;;;4.79;55.57;101966.05;1720672;82;21167;-72
2021/03/06 11:30:57;;;;;;;5.08;2.50;;;;;;;4.80;55.40;101955.87;1734207;81;21204;-72
2021/03/06 11:33:24;;;;;;;8.65;3.77;;;;;;;4.79;55.26;101952.84;1734186;81;21637;-72
2021/03/06 11:35:50;;;;;;;8.33;4.45;;;;;;;4.82;55.24;101956.64;1742928;81;21466;-72
2021/03/06 11:38:19;;;;;;;14.38;6.42;;;;;;;4.88;55.16;101950.50;1747119;81;21572;-72